sensor_id;sensor_type;location;lat;lon;timestamp;P1;durP1;ratioP1;P2;durP2;ratioP2
62419;SDS011;48460;51.616;5.426;2023-06-04T00:09:47;6.47;;;2.50;;
62419;SDS011;48460;51.616;5.426;2023-06-04T00:12:15;7.25;;;2.70;;
62419;SDS011;48460;51.616;5.426;2023-06-04T00:14:50;10.68;;;2.70;;
62419;SDS011;48460;51.616;5.426;2023-06-04T00:17:31;6.35;;;2.60;;
62419;SDS011;48460;51.616;5.426;2023-06-04T00:20:30;6.00;;;2.40;;
62419;SDS011;48460;51.616;5.426;2023-06-04T00:23:18;8.65;;;2.72;;
62419;SDS011;48460;51.616;5.426;2023-06-04T00:25:48;4.50;;;2.45;;
62419;SDS011;48460;51.616;5.426;2023-06-04T00:31:42;8.18;;;2.40;;
62419;SDS011;48460;51.616;5.426;2023-06-04T00:37:49;5.70;;;2.42;;
62419;SDS011;48460;51.616;5.426;2023-06-04T00:40:20;4.85;;;2.53;;
62419;SDS011;48460;51.616;5.426;2023-06-04T00:49:01;5.60;;;2.58;;
62419;SDS011;48460;51.616;5.426;2023-06-04T00:58:08;5.80;;;2.60;;
62419;SDS011;48460;51.616;5.426;2023-06-04T01:00:34;5.82;;;2.45;;
62419;SDS011;48460;51.616;5.426;2023-06-04T01:03:10;9.68;;;2.50;;
62419;SDS011;48460;51.616;5.426;2023-06-04T01:35:52;6.15;;;2.70;;
62419;SDS011;48460;51.616;5.426;2023-06-04T01:46:08;3.97;;;2.60;;
62419;SDS011;48460;51.616;5.426;2023-06-04T02:09:15;4.53;;;2.50;;
62419;SDS011;48460;51.616;5.426;2023-06-04T02:11:52;7.32;;;2.53;;
62419;SDS011;48460;51.616;5.426;2023-06-04T02:15:02;5.47;;;2.78;;
62419;SDS011;48460;51.616;5.426;2023-06-04T03:40:35;4.38;;;2.65;;
62419;SDS011;48460;51.616;5.426;2023-06-04T03:52:53;10.85;;;3.05;;
62419;SDS011;48460;51.616;5.426;2023-06-04T03:55:26;7.13;;;2.97;;
62419;SDS011;48460;51.616;5.426;2023-06-04T03:58:04;7.22;;;3.00;;
62419;SDS011;48460;51.616;5.426;2023-06-04T04:00:44;6.80;;;3.00;;
62419;SDS011;48460;51.616;5.426;2023-06-04T04:09:24;4.53;;;2.90;;
62419;SDS011;48460;51.616;5.426;2023-06-04T04:11:53;6.72;;;2.83;;
62419;SDS011;48460;51.616;5.426;2023-06-04T04:21:19;9.48;;;2.95;;
62419;SDS011;48460;51.616;5.426;2023-06-04T04:41:11;5.75;;;2.67;;
62419;SDS011;48460;51.616;5.426;2023-06-04T04:46:55;6.07;;;2.90;;
62419;SDS011;48460;51.616;5.426;2023-06-04T04:49:22;6.28;;;3.30;;
62419;SDS011;48460;51.616;5.426;2023-06-04T05:37:38;7.95;;;3.08;;
62419;SDS011;48460;51.616;5.426;2023-06-04T05:40:22;6.30;;;3.05;;
62419;SDS011;48460;51.616;5.426;2023-06-04T05:43:21;10.93;;;3.28;;
62419;SDS011;48460;51.616;5.426;2023-06-04T05:46:01;8.82;;;3.53;;
62419;SDS011;48460;51.616;5.426;2023-06-04T06:12:56;7.72;;;3.63;;
62419;SDS011;48460;51.616;5.426;2023-06-04T06:27:53;5.43;;;2.97;;
62419;SDS011;48460;51.616;5.426;2023-06-04T06:30:21;8.88;;;3.38;;
62419;SDS011;48460;51.616;5.426;2023-06-04T06:42:33;5.68;;;3.08;;
62419;SDS011;48460;51.616;5.426;2023-06-04T07:09:16;6.03;;;3.28;;
62419;SDS011;48460;51.616;5.426;2023-06-04T07:19:00;10.80;;;3.25;;
62419;SDS011;48460;51.616;5.426;2023-06-04T07:29:24;10.38;;;3.08;;
62419;SDS011;48460;51.616;5.426;2023-06-04T07:42:10;5.82;;;3.00;;
62419;SDS011;48460;51.616;5.426;2023-06-04T07:44:47;13.30;;;3.42;;
62419;SDS011;48460;51.616;5.426;2023-06-04T07:58:43;8.18;;;3.00;;
62419;SDS011;48460;51.616;5.426;2023-06-04T08:09:47;6.45;;;3.17;;
62419;SDS011;48460;51.616;5.426;2023-06-04T08:34:41;5.53;;;2.70;;
62419;SDS011;48460;51.616;5.426;2023-06-04T08:37:08;6.75;;;2.90;;
62419;SDS011;48460;51.616;5.426;2023-06-04T08:39:52;5.45;;;2.70;;
62419;SDS011;48460;51.616;5.426;2023-06-04T08:46:32;4.00;;;2.47;;
62419;SDS011;48460;51.616;5.426;2023-06-04T09:02:03;7.60;;;2.70;;
62419;SDS011;48460;51.616;5.426;2023-06-04T09:12:43;4.15;;;2.50;;
62419;SDS011;48460;51.616;5.426;2023-06-04T09:16:00;3.85;;;2.33;;
62419;SDS011;48460;51.616;5.426;2023-06-04T09:18:45;4.53;;;2.20;;
62419;SDS011;48460;51.616;5.426;2023-06-04T09:21:46;4.15;;;2.40;;
62419;SDS011;48460;51.616;5.426;2023-06-04T09:24:20;7.13;;;2.30;;
62419;SDS011;48460;51.616;5.426;2023-06-04T09:26:50;3.95;;;2.30;;
62419;SDS011;48460;51.616;5.426;2023-06-04T09:29:36;4.82;;;2.30;;
62419;SDS011;48460;51.616;5.426;2023-06-04T09:32:02;4.80;;;2.15;;
62419;SDS011;48460;51.616;5.426;2023-06-04T09:38:09;7.55;;;2.20;;
62419;SDS011;48460;51.616;5.426;2023-06-04T09:40:42;3.97;;;1.90;;
62419;SDS011;48460;51.616;5.426;2023-06-04T09:43:31;4.57;;;2.05;;
62419;SDS011;48460;51.616;5.426;2023-06-04T09:46:26;4.43;;;2.03;;
62419;SDS011;48460;51.616;5.426;2023-06-04T09:49:39;4.32;;;2.10;;
62419;SDS011;48460;51.616;5.426;2023-06-04T09:52:16;4.45;;;2.10;;
62419;SDS011;48460;51.616;5.426;2023-06-04T09:57:52;2.35;;;1.83;;
62419;SDS011;48460;51.616;5.426;2023-06-04T10:00:35;4.13;;;2.00;;
62419;SDS011;48460;51.616;5.426;2023-06-04T10:03:03;3.10;;;2.03;;
62419;SDS011;48460;51.616;5.426;2023-06-04T10:05:38;4.03;;;2.00;;
62419;SDS011;48460;51.616;5.426;2023-06-04T10:08:08;4.00;;;2.10;;
62419;SDS011;48460;51.616;5.426;2023-06-04T10:10:37;3.22;;;2.13;;
62419;SDS011;48460;51.616;5.426;2023-06-04T10:13:18;4.13;;;1.92;;
62419;SDS011;48460;51.616;5.426;2023-06-04T10:16:08;3.03;;;1.92;;
62419;SDS011;48460;51.616;5.426;2023-06-04T10:18:51;5.65;;;2.05;;
62419;SDS011;48460;51.616;5.426;2023-06-04T10:22:02;4.47;;;2.20;;
62419;SDS011;48460;51.616;5.426;2023-06-04T10:30:41;3.15;;;2.00;;
62419;SDS011;48460;51.616;5.426;2023-06-04T11:31:40;4.63;;;2.00;;
62419;SDS011;48460;51.616;5.426;2023-06-04T11:34:13;5.03;;;2.28;;
62419;SDS011;48460;51.616;5.426;2023-06-04T11:37:07;4.78;;;1.90;;
62419;SDS011;48460;51.616;5.426;2023-06-04T11:39:41;4.28;;;2.10;;
62419;SDS011;48460;51.616;5.426;2023-06-04T11:43:17;4.05;;;2.35;;
62419;SDS011;48460;51.616;5.426;2023-06-04T11:46:55;5.45;;;2.15;;
62419;SDS011;48460;51.616;5.426;2023-06-04T11:50:04;4.85;;;2.45;;
62419;SDS011;48460;51.616;5.426;2023-06-04T11:53:03;4.85;;;2.05;;
62419;SDS011;48460;51.616;5.426;2023-06-04T12:18:55;4.00;;;2.20;;
62419;SDS011;48460;51.616;5.426;2023-06-04T12:36:57;3.83;;;2.30;;
62419;SDS011;48460;51.616;5.426;2023-06-04T12:39:46;7.38;;;2.30;;
62419;SDS011;48460;51.616;5.426;2023-06-04T12:45:17;5.85;;;2.40;;
62419;SDS011;48460;51.616;5.426;2023-06-04T13:05:02;4.55;;;2.67;;
62419;SDS011;48460;51.616;5.426;2023-06-04T13:14:15;4.22;;;2.30;;
62419;SDS011;48460;51.616;5.426;2023-06-04T13:33:59;3.10;;;2.10;;
62419;SDS011;48460;51.616;5.426;2023-06-04T14:22:13;4.95;;;2.47;;
62419;SDS011;48460;51.616;5.426;2023-06-04T14:28:24;5.00;;;2.60;;
62419;SDS011;48460;51.616;5.426;2023-06-04T14:30:53;7.03;;;2.47;;
62419;SDS011;48460;51.616;5.426;2023-06-04T14:44:26;4.47;;;3.20;;
62419;SDS011;48460;51.616;5.426;2023-06-04T14:47:09;7.65;;;2.65;;
62419;SDS011;48460;51.616;5.426;2023-06-04T14:49:47;5.13;;;2.63;;
62419;SDS011;48460;51.616;5.426;2023-06-04T14:59:11;5.63;;;2.60;;
62419;SDS011;48460;51.616;5.426;2023-06-04T15:15:10;6.13;;;3.25;;
62419;SDS011;48460;51.616;5.426;2023-06-04T15:28:03;7.57;;;3.22;;
62419;SDS011;48460;51.616;5.426;2023-06-04T15:46:01;5.68;;;2.90;;
62419;SDS011;48460;51.616;5.426;2023-06-04T15:51:33;5.97;;;3.03;;
62419;SDS011;48460;51.616;5.426;2023-06-04T15:54:00;5.60;;;3.10;;
62419;SDS011;48460;51.616;5.426;2023-06-04T15:56:28;10.18;;;3.63;;
62419;SDS011;48460;51.616;5.426;2023-06-04T15:58:56;9.77;;;4.22;;
62419;SDS011;48460;51.616;5.426;2023-06-04T16:04:48;6.72;;;4.63;;
62419;SDS011;48460;51.616;5.426;2023-06-04T16:07:54;6.03;;;2.90;;
62419;SDS011;48460;51.616;5.426;2023-06-04T16:10:32;6.10;;;2.97;;
62419;SDS011;48460;51.616;5.426;2023-06-04T16:13:57;6.38;;;2.70;;
62419;SDS011;48460;51.616;5.426;2023-06-04T16:20:08;4.90;;;3.00;;
62419;SDS011;48460;51.616;5.426;2023-06-04T16:22:34;5.18;;;2.95;;
62419;SDS011;48460;51.616;5.426;2023-06-04T16:25:06;5.38;;;3.28;;
62419;SDS011;48460;51.616;5.426;2023-06-04T16:34:40;3.70;;;2.80;;
62419;SDS011;48460;51.616;5.426;2023-06-04T16:37:24;5.57;;;2.85;;
62419;SDS011;48460;51.616;5.426;2023-06-04T16:40:02;4.43;;;2.80;;
62419;SDS011;48460;51.616;5.426;2023-06-04T16:46:54;6.05;;;2.85;;
62419;SDS011;48460;51.616;5.426;2023-06-04T16:52:57;5.07;;;2.97;;
62419;SDS011;48460;51.616;5.426;2023-06-04T17:05:25;4.32;;;2.70;;
62419;SDS011;48460;51.616;5.426;2023-06-04T17:11:34;5.88;;;3.10;;
62419;SDS011;48460;51.616;5.426;2023-06-04T17:14:05;6.80;;;3.10;;
62419;SDS011;48460;51.616;5.426;2023-06-04T17:39:28;8.88;;;2.85;;
62419;SDS011;48460;51.616;5.426;2023-06-04T17:41:57;9.00;;;2.80;;
62419;SDS011;48460;51.616;5.426;2023-06-04T17:44:23;7.88;;;2.97;;
62419;SDS011;48460;51.616;5.426;2023-06-04T17:46:52;9.25;;;3.03;;
62419;SDS011;48460;51.616;5.426;2023-06-04T17:49:21;9.25;;;2.80;;
62419;SDS011;48460;51.616;5.426;2023-06-04T17:51:51;8.23;;;2.83;;
62419;SDS011;48460;51.616;5.426;2023-06-04T17:56:50;8.30;;;2.75;;
62419;SDS011;48460;51.616;5.426;2023-06-04T18:02:47;7.45;;;2.80;;
62419;SDS011;48460;51.616;5.426;2023-06-04T18:05:35;6.95;;;2.72;;
62419;SDS011;48460;51.616;5.426;2023-06-04T18:10:53;9.70;;;3.05;;
62419;SDS011;48460;51.616;5.426;2023-06-04T18:13:34;5.82;;;2.85;;
62419;SDS011;48460;51.616;5.426;2023-06-04T18:16:18;8.32;;;2.70;;
62419;SDS011;48460;51.616;5.426;2023-06-04T18:19:52;7.15;;;2.88;;
62419;SDS011;48460;51.616;5.426;2023-06-04T18:22:21;5.97;;;2.80;;
62419;SDS011;48460;51.616;5.426;2023-06-04T18:25:10;7.97;;;3.00;;
62419;SDS011;48460;51.616;5.426;2023-06-04T18:27:46;6.07;;;2.80;;
62419;SDS011;48460;51.616;5.426;2023-06-04T18:30:32;5.13;;;2.80;;
62419;SDS011;48460;51.616;5.426;2023-06-04T18:33:57;8.18;;;2.95;;
62419;SDS011;48460;51.616;5.426;2023-06-04T18:36:54;6.90;;;2.85;;
62419;SDS011;48460;51.616;5.426;2023-06-04T18:39:40;8.10;;;3.00;;
62419;SDS011;48460;51.616;5.426;2023-06-04T18:44:52;8.57;;;3.00;;
62419;SDS011;48460;51.616;5.426;2023-06-04T18:47:26;6.85;;;2.90;;
62419;SDS011;48460;51.616;5.426;2023-06-04T18:53:15;5.65;;;2.90;;
62419;SDS011;48460;51.616;5.426;2023-06-04T18:56:16;11.45;;;3.15;;
62419;SDS011;48460;51.616;5.426;2023-06-04T19:02:20;7.10;;;3.10;;
62419;SDS011;48460;51.616;5.426;2023-06-04T19:04:58;7.40;;;2.85;;
62419;SDS011;48460;51.616;5.426;2023-06-04T19:08:31;9.90;;;2.90;;
62419;SDS011;48460;51.616;5.426;2023-06-04T19:14:23;6.93;;;2.97;;
62419;SDS011;48460;51.616;5.426;2023-06-04T19:17:16;7.45;;;2.90;;
62419;SDS011;48460;51.616;5.426;2023-06-04T19:19:50;7.85;;;2.80;;
62419;SDS011;48460;51.616;5.426;2023-06-04T19:22:35;9.18;;;3.00;;
62419;SDS011;48460;51.616;5.426;2023-06-04T19:28:42;10.88;;;2.70;;
62419;SDS011;48460;51.616;5.426;2023-06-04T19:31:28;8.00;;;3.20;;
62419;SDS011;48460;51.616;5.426;2023-06-04T19:34:40;9.20;;;3.10;;
62419;SDS011;48460;51.616;5.426;2023-06-04T19:37:34;10.38;;;3.30;;
62419;SDS011;48460;51.616;5.426;2023-06-04T19:40:29;4.50;;;2.50;;
62419;SDS011;48460;51.616;5.426;2023-06-04T19:46:41;8.63;;;2.90;;
62419;SDS011;48460;51.616;5.426;2023-06-04T19:49:20;10.18;;;2.72;;
62419;SDS011;48460;51.616;5.426;2023-06-04T19:51:51;7.85;;;2.80;;
62419;SDS011;48460;51.616;5.426;2023-06-04T19:54:18;7.22;;;2.70;;
62419;SDS011;48460;51.616;5.426;2023-06-04T19:56:45;7.53;;;3.03;;
62419;SDS011;48460;51.616;5.426;2023-06-04T20:02:20;10.20;;;3.10;;
62419;SDS011;48460;51.616;5.426;2023-06-04T20:04:48;6.15;;;2.85;;
62419;SDS011;48460;51.616;5.426;2023-06-04T20:07:24;7.40;;;2.83;;
62419;SDS011;48460;51.616;5.426;2023-06-04T20:09:56;8.60;;;2.80;;
62419;SDS011;48460;51.616;5.426;2023-06-04T20:12:22;9.40;;;3.13;;
62419;SDS011;48460;51.616;5.426;2023-06-04T20:14:50;5.47;;;2.88;;
62419;SDS011;48460;51.616;5.426;2023-06-04T20:17:16;6.95;;;2.75;;
62419;SDS011;48460;51.616;5.426;2023-06-04T20:19:41;6.25;;;3.00;;
62419;SDS011;48460;51.616;5.426;2023-06-04T20:22:10;9.38;;;3.42;;
62419;SDS011;48460;51.616;5.426;2023-06-04T20:24:39;6.22;;;2.70;;
62419;SDS011;48460;51.616;5.426;2023-06-04T20:27:10;9.95;;;3.15;;
62419;SDS011;48460;51.616;5.426;2023-06-04T20:29:42;7.45;;;3.15;;
62419;SDS011;48460;51.616;5.426;2023-06-04T20:32:07;6.53;;;2.90;;
62419;SDS011;48460;51.616;5.426;2023-06-04T20:34:34;11.85;;;3.17;;
62419;SDS011;48460;51.616;5.426;2023-06-04T20:37:04;5.78;;;2.90;;
62419;SDS011;48460;51.616;5.426;2023-06-04T20:39:32;10.75;;;3.00;;
62419;SDS011;48460;51.616;5.426;2023-06-04T20:42:03;7.13;;;2.90;;
62419;SDS011;48460;51.616;5.426;2023-06-04T20:44:32;8.40;;;2.80;;
62419;SDS011;48460;51.616;5.426;2023-06-04T20:47:00;8.32;;;2.90;;
62419;SDS011;48460;51.616;5.426;2023-06-04T20:49:29;5.78;;;3.00;;
62419;SDS011;48460;51.616;5.426;2023-06-04T20:51:59;7.82;;;2.90;;
62419;SDS011;48460;51.616;5.426;2023-06-04T20:54:31;9.27;;;2.70;;
62419;SDS011;48460;51.616;5.426;2023-06-04T20:56:57;8.30;;;2.60;;
62419;SDS011;48460;51.616;5.426;2023-06-04T20:59:22;8.98;;;3.00;;
62419;SDS011;48460;51.616;5.426;2023-06-04T21:01:48;5.50;;;2.80;;
62419;SDS011;48460;51.616;5.426;2023-06-04T21:04:19;7.72;;;2.63;;
62419;SDS011;48460;51.616;5.426;2023-06-04T21:06:52;7.38;;;2.83;;
62419;SDS011;48460;51.616;5.426;2023-06-04T21:09:20;6.40;;;2.80;;
62419;SDS011;48460;51.616;5.426;2023-06-04T21:11:49;7.25;;;3.17;;
62419;SDS011;48460;51.616;5.426;2023-06-04T21:14:14;5.70;;;2.78;;
62419;SDS011;48460;51.616;5.426;2023-06-04T21:16:44;8.90;;;2.80;;
62419;SDS011;48460;51.616;5.426;2023-06-04T21:19:09;10.43;;;3.13;;
62419;SDS011;48460;51.616;5.426;2023-06-04T21:21:35;7.88;;;2.90;;
62419;SDS011;48460;51.616;5.426;2023-06-04T21:24:03;5.47;;;2.90;;
62419;SDS011;48460;51.616;5.426;2023-06-04T21:26:33;5.85;;;2.88;;
62419;SDS011;48460;51.616;5.426;2023-06-04T21:29:00;8.55;;;3.00;;
62419;SDS011;48460;51.616;5.426;2023-06-04T21:31:26;8.38;;;3.05;;
62419;SDS011;48460;51.616;5.426;2023-06-04T21:33:58;6.20;;;2.83;;
62419;SDS011;48460;51.616;5.426;2023-06-04T21:36:26;5.72;;;2.88;;
62419;SDS011;48460;51.616;5.426;2023-06-04T21:38:53;9.23;;;3.20;;
62419;SDS011;48460;51.616;5.426;2023-06-04T21:41:19;9.02;;;2.92;;
62419;SDS011;48460;51.616;5.426;2023-06-04T21:43:45;7.63;;;2.88;;
62419;SDS011;48460;51.616;5.426;2023-06-04T21:46:10;6.38;;;3.17;;
62419;SDS011;48460;51.616;5.426;2023-06-04T21:48:37;9.13;;;3.08;;
62419;SDS011;48460;51.616;5.426;2023-06-04T21:51:02;9.25;;;2.90;;
62419;SDS011;48460;51.616;5.426;2023-06-04T21:53:31;8.15;;;3.50;;
62419;SDS011;48460;51.616;5.426;2023-06-04T21:56:03;8.20;;;3.53;;
62419;SDS011;48460;51.616;5.426;2023-06-04T21:58:28;9.20;;;3.20;;
62419;SDS011;48460;51.616;5.426;2023-06-04T22:00:57;9.07;;;3.25;;
62419;SDS011;48460;51.616;5.426;2023-06-04T22:03:25;6.80;;;3.10;;
62419;SDS011;48460;51.616;5.426;2023-06-04T22:05:53;7.65;;;3.15;;
62419;SDS011;48460;51.616;5.426;2023-06-04T22:08:18;6.85;;;3.35;;
62419;SDS011;48460;51.616;5.426;2023-06-04T22:10:46;6.70;;;3.17;;
62419;SDS011;48460;51.616;5.426;2023-06-04T22:13:13;6.55;;;3.13;;
62419;SDS011;48460;51.616;5.426;2023-06-04T22:15:41;6.95;;;3.22;;
62419;SDS011;48460;51.616;5.426;2023-06-04T22:18:09;8.45;;;3.10;;
62419;SDS011;48460;51.616;5.426;2023-06-04T22:20:37;6.85;;;3.17;;
62419;SDS011;48460;51.616;5.426;2023-06-04T22:23:05;8.13;;;3.13;;
62419;SDS011;48460;51.616;5.426;2023-06-04T22:25:36;10.55;;;3.63;;
62419;SDS011;48460;51.616;5.426;2023-06-04T22:28:04;5.80;;;2.97;;
62419;SDS011;48460;51.616;5.426;2023-06-04T22:30:29;9.05;;;3.22;;
62419;SDS011;48460;51.616;5.426;2023-06-04T22:32:55;9.93;;;3.10;;
62419;SDS011;48460;51.616;5.426;2023-06-04T22:35:28;7.22;;;3.28;;
62419;SDS011;48460;51.616;5.426;2023-06-04T22:37:54;9.05;;;3.05;;
62419;SDS011;48460;51.616;5.426;2023-06-04T22:40:21;8.05;;;3.20;;
62419;SDS011;48460;51.616;5.426;2023-06-04T22:42:46;5.72;;;3.10;;
62419;SDS011;48460;51.616;5.426;2023-06-04T22:45:12;6.38;;;3.25;;
62419;SDS011;48460;51.616;5.426;2023-06-04T22:47:40;7.78;;;3.40;;
62419;SDS011;48460;51.616;5.426;2023-06-04T22:50:05;7.50;;;3.40;;
62419;SDS011;48460;51.616;5.426;2023-06-04T22:52:32;7.13;;;3.30;;
62419;SDS011;48460;51.616;5.426;2023-06-04T22:54:58;8.45;;;3.30;;
62419;SDS011;48460;51.616;5.426;2023-06-04T22:57:24;7.00;;;3.30;;
62419;SDS011;48460;51.616;5.426;2023-06-04T22:59:49;8.68;;;3.30;;
62419;SDS011;48460;51.616;5.426;2023-06-04T23:02:17;6.93;;;3.35;;
62419;SDS011;48460;51.616;5.426;2023-06-04T23:04:43;7.47;;;3.47;;
62419;SDS011;48460;51.616;5.426;2023-06-04T23:07:16;7.85;;;3.25;;
62419;SDS011;48460;51.616;5.426;2023-06-04T23:09:42;7.57;;;3.13;;
62419;SDS011;48460;51.616;5.426;2023-06-04T23:12:07;8.07;;;3.40;;
62419;SDS011;48460;51.616;5.426;2023-06-04T23:14:34;7.43;;;3.08;;
62419;SDS011;48460;51.616;5.426;2023-06-04T23:17:01;9.35;;;3.53;;
62419;SDS011;48460;51.616;5.426;2023-06-04T23:19:27;6.65;;;3.22;;
62419;SDS011;48460;51.616;5.426;2023-06-04T23:21:54;9.25;;;3.38;;
62419;SDS011;48460;51.616;5.426;2023-06-04T23:24:20;7.28;;;3.35;;
62419;SDS011;48460;51.616;5.426;2023-06-04T23:26:49;8.15;;;3.47;;
62419;SDS011;48460;51.616;5.426;2023-06-04T23:29:21;12.13;;;3.47;;
62419;SDS011;48460;51.616;5.426;2023-06-04T23:31:47;11.52;;;3.55;;
62419;SDS011;48460;51.616;5.426;2023-06-04T23:34:12;6.90;;;3.17;;
62419;SDS011;48460;51.616;5.426;2023-06-04T23:36:40;7.30;;;3.60;;
62419;SDS011;48460;51.616;5.426;2023-06-04T23:39:06;6.43;;;3.38;;
62419;SDS011;48460;51.616;5.426;2023-06-04T23:41:34;6.80;;;3.45;;
62419;SDS011;48460;51.616;5.426;2023-06-04T23:44:00;6.20;;;3.40;;
62419;SDS011;48460;51.616;5.426;2023-06-04T23:46:26;7.70;;;3.28;;
62419;SDS011;48460;51.616;5.426;2023-06-04T23:48:55;12.63;;;3.50;;
62419;SDS011;48460;51.616;5.426;2023-06-04T23:51:20;8.32;;;3.33;;
62419;SDS011;48460;51.616;5.426;2023-06-04T23:53:46;6.72;;;3.25;;
62419;SDS011;48460;51.616;5.426;2023-06-04T23:58:44;6.43;;;3.30;;
